KDOV/DOV METAR and TAF weather

Enter ICAO airport designator
Station Type Date Time Source
KDOV METAR 2019/08/22 02:56 UTC NOAA

KDOV 220256Z AUTO 22005KT 10SM CLR 26/23 A2988 RMK AO2 SLP121 T02560227 50004 $


Station Type Date Time Source
KDOV Decoded METAR 2019/08/22 02:56 UTC NOAA

Station name not available
Aug 21, 2019 - 10:56 PM EDT / 2019.08.22 0256 UTC
Wind: from the SW (220 degrees) at 6 MPH (5 KT):0
Visibility: 10 mile(s):0
Sky conditions: clear
Temperature: 78.1 F (25.6 C)
Dew Point: 72.9 F (22.7 C)
Relative Humidity: 84%
Pressure (altimeter): 29.88 in. Hg (1011 hPa)
Pressure tendency: 0.01 inches (0.4 hPa) higher than three hours ago
ob: KDOV 220256Z AUTO 22005KT 10SM CLR 26/23 A2988 RMK AO2 SLP121 T02560227 50004
cycle: 3

Station Type Date Time Source
KDOV TAF 2019/08/22 00:06 UTC NOAA

TAF TAF KDOV 220000Z 2200/2306 21009KT 9999 FEW040 SCT100 QNH2987INS
BECMG 2210/2211 27009KT 9999 FEW030 QNH2991INS
BECMG 2218/2219 22006KT 9999 SCT050 QNH2989INS
BECMG 2302/2303 19010G15KT 8000 -TSRA BKN040CB QNH2988INS TX33/2219Z TN23/2208Z

Example: see airport list